Time;durP1;ratioP1;P1;durP2;ratioP2;P2;SDS_P1;SDS_P2;PMS_P1;PMS_P2;Temp;Humidity;BMP_temperature;BMP_pressure;BME280_temperature;BME280_humidity;BME280_pressure;Samples;Min_cycle;Max_cycle;Signal;HPM_P1;HPM_P2
2022/08/09 00:00:58;;;;;;;;;;;;;;;18.01;68.53;97131.63;6224926;28;20358;-65
2022/08/09 00:04:01;;;;;;;;;;;;;;;17.91;68.59;97132.44;6223515;28;19933;-65
2022/08/09 00:07:08;;;;;;;;;;;;;;;17.85;68.58;97117.03;6225098;28;19925;-65
2022/08/09 00:10:14;;;;;;;;;;;;;;;17.84;68.67;97120.69;6224750;28;19925;-65
2022/08/09 00:13:15;;;;;;;;;;;;;;;17.82;68.77;97121.81;6224594;28;19932;-66
2022/08/09 00:16:16;;;;;;;;;;;;;;;17.79;68.75;97117.59;6224646;28;19932;-65
2022/08/09 00:19:18;;;;;;;;;;;;;;;17.74;68.98;97123.28;6224394;28;19965;-65
2022/08/09 00:22:22;;;;;;;;;;;;;;;17.79;68.43;97128.25;6224509;28;19925;-66
2022/08/09 00:25:26;;;;;;;;;;;;;;;17.84;69.09;97127.84;6224156;28;19925;-65
2022/08/09 00:28:32;;;;;;;;;;;;;;;17.92;68.52;97128.81;6223669;28;20353;-66
2022/08/09 00:31:34;;;;;;;;;;;;;;;18.01;67.87;97128.97;6223405;28;19925;-65
2022/08/09 00:34:36;;;;;;;;;;;;;;;18.04;68.46;97128.69;6223564;28;20311;-65
2022/08/09 00:37:42;;;;;;;;;;;;;;;18.07;68.02;97125.75;6224145;28;19926;-64
2022/08/09 00:40:46;;;;;;;;;;;;;;;18.11;68.40;97127.97;6223956;28;19925;-65
2022/08/09 00:43:48;;;;;;;;;;;;;;;18.14;68.55;97129.50;6223914;28;20296;-66
2022/08/09 00:46:49;;;;;;;;;;;;;;;18.13;68.40;97133.16;6224136;28;19929;-66
2022/08/09 00:49:55;;;;;;;;;;;;;;;18.18;68.56;97134.44;6223896;28;20019;-65
2022/08/09 00:53:00;;;;;;;;;;;;;;;18.16;68.80;97130.22;6223908;28;19925;-66
2022/08/09 00:56:07;;;;;;;;;;;;;;;18.22;68.93;97134.97;6223973;28;20323;-65
2022/08/09 00:59:08;;;;;;;;;;;;;;;18.18;68.82;97128.25;6223507;28;20310;-66
2022/08/09 01:02:09;;;;;;;;;;;;;;;18.17;68.70;97137.22;6223504;28;19953;-65
2022/08/09 01:05:13;;;;;;;;;;;;;;;18.20;69.08;97139.59;6223616;28;19925;-66
2022/08/09 01:08:16;;;;;;;;;;;;;;;18.24;68.97;97142.84;6223217;28;20020;-64
2022/08/09 01:11:25;;;;;;;;;;;;;;;18.27;68.42;97143.41;6223425;28;19968;-65
2022/08/09 01:14:26;;;;;;;;;;;;;;;18.30;68.70;97147.59;6222734;28;19925;-65
2022/08/09 01:17:33;;;;;;;;;;;;;;;18.36;68.23;97147.88;6222853;28;20409;-65
2022/08/09 01:20:49;;;;;;;;;;;;;;;18.36;68.47;97153.19;6223113;28;19925;-64
2022/08/09 01:24:02;;;;;;;;;;;;;;;18.37;68.17;97149.56;6222718;28;19926;-65
2022/08/09 01:27:05;;;;;;;;;;;;;;;18.45;67.75;97156.84;6222946;28;19925;-66
2022/08/09 01:30:09;;;;;;;;;;;;;;;18.53;67.97;97140.16;6223129;28;19925;-66
2022/08/09 01:33:11;;;;;;;;;;;;;;;18.64;68.07;97140.00;6222733;28;19956;-66
2022/08/09 01:36:19;;;;;;;;;;;;;;;18.67;67.79;97144.19;6222780;28;19932;-66
2022/08/09 01:39:23;;;;;;;;;;;;;;;18.77;68.24;97145.06;6222294;28;19933;-66
2022/08/09 01:42:25;;;;;;;;;;;;;;;18.73;68.33;97144.44;6222512;28;19926;-65
2022/08/09 01:45:29;;;;;;;;;;;;;;;18.78;67.86;97147.56;6222193;28;19925;-66
2022/08/09 01:48:36;;;;;;;;;;;;;;;18.90;67.94;97145.56;6222348;28;20387;-66
2022/08/09 01:51:44;;;;;;;;;;;;;;;18.91;67.73;97152.59;6222483;28;19957;-65
2022/08/09 01:54:48;;;;;;;;;;;;;;;19.10;68.29;97154.34;6222069;28;20406;-65
2022/08/09 01:57:52;;;;;;;;;;;;;;;19.09;67.50;97147.34;6222319;28;19926;-65
2022/08/09 02:00:59;;;;;;;;;;;;;;;19.12;67.75;97149.72;6221786;28;19925;-65
2022/08/09 02:04:02;;;;;;;;;;;;;;;19.18;67.44;97143.78;6222235;28;20426;-65
2022/08/09 02:07:12;;;;;;;;;;;;;;;19.24;67.23;97150.34;6222098;28;19925;-66
2022/08/09 02:10:19;;;;;;;;;;;;;;;19.28;66.87;97147.25;6222150;28;20016;-65
2022/08/09 02:13:24;;;;;;;;;;;;;;;19.38;66.58;97149.03;6221548;28;20016;-66
2022/08/09 02:16:32;;;;;;;;;;;;;;;19.46;66.71;97149.16;6222085;28;20372;-66
2022/08/09 02:19:35;;;;;;;;;;;;;;;19.54;66.50;97151.91;6221835;28;20015;-66
2022/08/09 02:22:47;;;;;;;;;;;;;;;19.63;66.46;97152.84;6221814;28;19929;-66
2022/08/09 02:25:55;;;;;;;;;;;;;;;19.71;65.88;97151.16;6220872;28;19930;-66
2022/08/09 02:28:58;;;;;;;;;;;;;;;19.83;66.08;97156.28;6221253;28;19925;-65
2022/08/09 02:32:00;;;;;;;;;;;;;;;19.93;65.72;97149.06;6221433;28;19926;-65
2022/08/09 02:35:04;;;;;;;;;;;;;;;20.03;65.30;97155.16;6221517;28;19926;-65
2022/08/09 02:38:10;;;;;;;;;;;;;;;20.17;65.20;97149.28;6221450;28;19926;-66
2022/08/09 02:41:20;;;;;;;;;;;;;;;20.27;64.87;97145.66;6221005;28;20338;-66
2022/08/09 02:44:24;;;;;;;;;;;;;;;20.43;64.33;97151.16;6221122;28;20399;-66
2022/08/09 02:47:27;;;;;;;;;;;;;;;20.56;64.15;97146.31;6221115;28;19933;-65
2022/08/09 02:50:40;;;;;;;;;;;;;;;20.57;64.04;97153.31;6221367;28;19925;-66
2022/08/09 02:53:47;;;;;;;;;;;;;;;20.67;63.69;97149.72;6220961;28;19926;-65
2022/08/09 02:56:49;;;;;;;;;;;;;;;20.78;63.72;97157.50;6221023;28;19925;-66
2022/08/09 02:59:56;;;;;;;;;;;;;;;20.84;63.49;97148.84;6221128;28;19955;-66
2022/08/09 03:02:59;;;;;;;;;;;;;;;20.91;63.21;97155.22;6221098;28;20036;-66
2022/08/09 03:06:05;;;;;;;;;;;;;;;21.01;63.01;97157.81;6218894;28;20387;-66
2022/08/09 03:09:07;;;;;;;;;;;;;;;21.10;62.68;97159.53;6220668;28;20024;-65
2022/08/09 03:12:10;;;;;;;;;;;;;;;21.25;62.44;97157.94;6221084;28;20358;-65
2022/08/09 03:15:12;;;;;;;;;;;;;;;21.35;62.00;97157.00;6221006;28;20310;-66
2022/08/09 03:18:17;;;;;;;;;;;;;;;21.43;61.87;97160.59;6221103;28;19925;-66
2022/08/09 03:21:21;;;;;;;;;;;;;;;21.53;61.41;97145.22;6220948;28;19932;-66
2022/08/09 03:24:24;;;;;;;;;;;;;;;21.65;61.40;97148.44;6220241;28;19925;-66
2022/08/09 03:27:27;;;;;;;;;;;;;;;21.77;60.91;97149.00;6219168;28;20020;-66
2022/08/09 03:30:31;;;;;;;;;;;;;;;21.85;60.79;97138.28;6220738;28;19925;-66
2022/08/09 03:33:36;;;;;;;;;;;;;;;21.91;60.48;97148.38;6220737;28;19925;-66
2022/08/09 03:36:37;;;;;;;;;;;;;;;22.02;60.13;97149.03;6221410;28;19926;-65
2022/08/09 03:39:38;;;;;;;;;;;;;;;22.09;59.96;97148.22;6225116;28;19933;-65
2022/08/09 03:42:40;;;;;;;;;;;;;;;22.16;59.55;97148.38;6224869;28;19925;-65
2022/08/09 03:45:41;;;;;;;;;;;;;;;22.23;59.51;97152.13;6225184;28;19931;-65
2022/08/09 03:48:46;;;;;;;;;;;;;;;22.39;59.16;97152.16;6224632;28;20007;-66
2022/08/09 03:51:53;;;;;;;;;;;;;;;22.52;58.96;97150.81;6224779;28;19929;-66
2022/08/09 03:54:58;;;;;;;;;;;;;;;22.60;58.46;97153.50;6224888;28;19925;-66
2022/08/09 03:58:02;;;;;;;;;;;;;;;22.68;58.49;97149.97;6224350;28;19925;-65
2022/08/09 04:01:05;;;;;;;;;;;;;;;22.81;58.11;97150.28;6224100;28;20322;-66
2022/08/09 04:04:10;;;;;;;;;;;;;;;22.90;57.93;97153.78;6224703;28;19925;-65
2022/08/09 04:07:11;;;;;;;;;;;;;;;22.98;57.61;97153.81;6224871;28;19945;-64
2022/08/09 04:10:13;;;;;;;;;;;;;;;23.13;57.30;97154.81;6223962;28;20314;-65
2022/08/09 04:13:18;;;;;;;;;;;;;;;23.26;57.08;97155.06;6224237;28;20027;-65
2022/08/09 04:16:19;;;;;;;;;;;;;;;23.40;56.71;97152.69;6224652;28;19952;-66
2022/08/09 04:19:25;;;;;;;;;;;;;;;23.53;56.31;97155.69;6224317;28;19921;-65
2022/08/09 04:22:28;;;;;;;;;;;;;;;23.64;55.93;97152.59;6224318;28;20310;-66
2022/08/09 04:25:30;;;;;;;;;;;;;;;23.78;55.33;97153.75;6224118;28;19933;-65
2022/08/09 04:28:31;;;;;;;;;;;;;;;23.88;54.85;97153.53;6224220;28;19925;-65
2022/08/09 04:31:32;;;;;;;;;;;;;;;24.02;54.74;97150.09;6224390;28;19933;-66
2022/08/09 04:34:35;;;;;;;;;;;;;;;24.22;54.17;97153.16;6224245;28;20317;-66
2022/08/09 04:37:39;;;;;;;;;;;;;;;24.37;53.94;97151.38;6224449;28;19925;-66
2022/08/09 04:40:48;;;;;;;;;;;;;;;24.56;53.35;97152.75;6223926;28;19925;-66
2022/08/09 04:43:49;;;;;;;;;;;;;;;24.79;52.68;97162.66;6223906;28;20001;-66
2022/08/09 04:46:55;;;;;;;;;;;;;;;25.00;52.42;97156.59;6223875;28;20391;-66
2022/08/09 04:50:00;;;;;;;;;;;;;;;25.25;51.61;97158.03;6222546;28;20016;-66
2022/08/09 04:53:06;;;;;;;;;;;;;;;26.47;49.60;97159.28;6223492;28;19925;-66
2022/08/09 04:56:10;;;;;;;;;;;;;;;29.91;44.25;97166.06;6223945;28;19921;-65
2022/08/09 04:59:14;;;;;;;;;;;;;;;33.52;38.38;97171.81;6223308;28;19976;-66
2022/08/09 05:02:17;;;;;;;;;;;;;;;36.24;34.77;97179.28;6222908;28;20407;-65
2022/08/09 05:05:23;;;;;;;;;;;;;;;38.65;31.63;97173.56;6223368;28;20391;-65
2022/08/09 05:08:26;;;;;;;;;;;;;;;40.43;28.96;97179.91;6223170;28;20379;-65
2022/08/09 05:11:28;;;;;;;;;;;;;;;41.77;27.22;97181.38;6223055;28;19956;-65
2022/08/09 05:14:30;;;;;;;;;;;;;;;42.91;24.63;97182.38;6222395;28;19925;-65
2022/08/09 05:17:35;;;;;;;;;;;;;;;43.86;22.36;97182.97;6222636;28;19925;-65
2022/08/09 05:20:39;;;;;;;;;;;;;;;44.22;22.12;97184.19;6222997;28;19926;-65
2022/08/09 05:23:40;;;;;;;;;;;;;;;44.88;21.16;97188.31;6222972;28;20038;-65
2022/08/09 05:26:41;;;;;;;;;;;;;;;45.44;20.23;97184.16;6222937;28;20397;-66
2022/08/09 05:29:42;;;;;;;;;;;;;;;45.94;20.46;97183.13;6222921;28;19926;-65
2022/08/09 05:32:48;;;;;;;;;;;;;;;46.57;16.39;97180.97;6222863;28;20427;-65
2022/08/09 05:35:54;;;;;;;;;;;;;;;47.14;19.07;97178.09;6221602;28;19925;-66
2022/08/09 05:38:57;;;;;;;;;;;;;;;44.73;21.55;97177.53;6222660;28;19925;-65
2022/08/09 05:42:04;;;;;;;;;;;;;;;44.65;20.65;97167.22;6222487;28;20027;-66
2022/08/09 05:45:06;;;;;;;;;;;;;;;42.93;21.72;97154.41;6220606;28;19929;-65
2022/08/09 05:48:07;;;;;;;;;;;;;;;39.36;24.06;97145.28;6220894;28;19925;-65
2022/08/09 05:51:08;;;;;;;;;;;;;;;38.40;26.19;97139.41;6222505;28;19925;-66
2022/08/09 05:54:09;;;;;;;;;;;;;;;38.58;25.30;97135.31;6222223;28;19933;-65
2022/08/09 05:57:11;;;;;;;;;;;;;;;37.11;26.24;97139.00;6221875;28;19921;-66
2022/08/09 06:00:13;;;;;;;;;;;;;;;36.87;26.58;97136.59;6222200;28;19926;-64
2022/08/09 06:03:16;;;;;;;;;;;;;;;36.63;26.33;97133.38;6221865;28;20306;-65
2022/08/09 06:06:22;;;;;;;;;;;;;;;36.85;26.58;97131.38;6221953;28;19925;-65
2022/08/09 06:09:25;;;;;;;;;;;;;;;36.49;26.23;97132.97;6221597;28;19929;-65
2022/08/09 06:12:27;;;;;;;;;;;;;;;34.81;28.12;97123.28;6221242;28;20024;-66
2022/08/09 06:15:31;;;;;;;;;;;;;;;33.30;29.91;97118.91;6221782;28;19926;-65
2022/08/09 06:18:32;;;;;;;;;;;;;;;32.22;31.09;97128.16;6221906;28;19921;-66
2022/08/09 06:21:36;;;;;;;;;;;;;;;31.51;32.34;97119.59;6221637;28;19926;-65
2022/08/09 06:24:39;;;;;;;;;;;;;;;33.20;30.08;97119.47;6221426;28;19948;-66
2022/08/09 06:27:40;;;;;;;;;;;;;;;34.08;28.99;97120.28;6221536;28;19963;-65
2022/08/09 06:30:41;;;;;;;;;;;;;;;33.24;29.79;97119.84;6221366;28;19925;-66
2022/08/09 06:33:46;;;;;;;;;;;;;;;32.57;30.81;97115.50;6221572;28;19926;-66
2022/08/09 06:36:49;;;;;;;;;;;;;;;34.30;28.58;97116.88;6221499;28;20288;-67
2022/08/09 06:39:50;;;;;;;;;;;;;;;34.32;28.10;97115.56;6221366;28;19935;-65
2022/08/09 06:42:51;;;;;;;;;;;;;;;36.09;26.25;97112.25;6221200;28;20395;-65
2022/08/09 06:45:54;;;;;;;;;;;;;;;36.67;24.95;97118.06;6221273;28;19925;-66
2022/08/09 06:48:58;;;;;;;;;;;;;;;35.73;26.16;97119.22;6221289;28;19921;-66
2022/08/09 06:52:02;;;;;;;;;;;;;;;38.30;23.62;97118.19;6221180;28;19926;-65
2022/08/09 06:55:06;;;;;;;;;;;;;;;41.90;20.55;97130.94;6221185;28;19995;-64
2022/08/09 06:58:12;;;;;;;;;;;;;;;44.48;18.13;97140.13;6221108;28;20299;-66
2022/08/09 07:01:13;;;;;;;;;;;;;;;44.84;18.38;97142.88;6221055;28;19926;-66
2022/08/09 07:04:18;;;;;;;;;;;;;;;46.80;16.13;97139.94;6221191;28;19925;-66
2022/08/09 07:07:19;;;;;;;;;;;;;;;48.52;14.59;97148.00;6220570;28;19925;-66
2022/08/09 07:10:24;;;;;;;;;;;;;;;49.97;13.29;97138.84;6220688;28;19925;-66
2022/08/09 07:13:27;;;;;;;;;;;;;;;51.31;11.40;97141.63;6224863;28;19925;-65
2022/08/09 07:16:29;;;;;;;;;;;;;;;52.71;11.80;97145.88;6225980;28;19925;-66
2022/08/09 07:19:31;;;;;;;;;;;;;;;53.37;11.45;97144.03;6225599;28;19929;-65
2022/08/09 07:22:35;;;;;;;;;;;;;;;53.91;11.20;97147.78;6225346;28;19925;-66
2022/08/09 07:25:39;;;;;;;;;;;;;;;54.15;10.19;97147.34;6225518;28;19970;-65
2022/08/09 07:28:44;;;;;;;;;;;;;;;54.48;10.97;97157.09;6225619;28;19925;-65
2022/08/09 07:31:45;;;;;;;;;;;;;;;54.75;10.05;97145.78;6225088;28;19961;-66
2022/08/09 07:34:46;;;;;;;;;;;;;;;54.36;10.14;97144.06;6224926;28;19925;-64
2022/08/09 07:37:48;;;;;;;;;;;;;;;54.08;10.66;97138.81;6224588;28;19925;-65
2022/08/09 07:40:53;;;;;;;;;;;;;;;54.91;9.96;97133.09;6225172;28;20011;-65
2022/08/09 07:43:54;;;;;;;;;;;;;;;53.92;9.52;97133.31;6225004;28;19931;-65
2022/08/09 07:46:55;;;;;;;;;;;;;;;54.04;10.43;97129.47;6225014;28;19988;-65
2022/08/09 07:49:59;;;;;;;;;;;;;;;55.30;8.76;97126.34;6225215;28;19938;-66
2022/08/09 07:53:03;;;;;;;;;;;;;;;55.59;8.71;97128.22;6225017;28;19925;-65
2022/08/09 07:56:08;;;;;;;;;;;;;;;55.45;8.70;97124.44;6224836;28;19929;-64
2022/08/09 07:59:10;;;;;;;;;;;;;;;55.39;8.57;97115.53;6224810;28;20312;-65
2022/08/09 08:02:12;;;;;;;;;;;;;;;55.80;9.04;97126.78;6224470;28;20288;-65
2022/08/09 08:05:15;;;;;;;;;;;;;;;57.09;8.06;97122.69;6224757;28;20027;-65
2022/08/09 08:08:19;;;;;;;;;;;;;;;57.88;7.60;97128.47;6224444;28;20023;-65
2022/08/09 08:11:23;;;;;;;;;;;;;;;58.19;7.48;97131.69;6224317;28;19925;-65
2022/08/09 08:14:24;;;;;;;;;;;;;;;58.32;7.20;97130.00;6224108;28;19999;-65
2022/08/09 08:17:28;;;;;;;;;;;;;;;58.46;6.77;97117.84;6224633;28;19925;-65
2022/08/09 08:20:33;;;;;;;;;;;;;;;58.91;6.79;97120.09;6224555;28;20395;-65
2022/08/09 08:23:38;;;;;;;;;;;;;;;58.42;6.54;97111.41;6223368;28;20016;-65
2022/08/09 08:26:44;;;;;;;;;;;;;;;57.32;6.75;97113.84;6224563;28;19921;-65
2022/08/09 08:29:45;;;;;;;;;;;;;;;56.96;7.05;97112.13;6224115;28;19932;-65
2022/08/09 08:32:50;;;;;;;;;;;;;;;56.83;6.58;97098.34;6222886;28;19933;-66
2022/08/09 08:35:52;;;;;;;;;;;;;;;56.45;7.05;97100.59;6224017;28;19926;-66
2022/08/09 08:39:03;;;;;;;;;;;;;;;56.10;7.32;97097.56;6223994;28;20020;-66
2022/08/09 08:42:04;;;;;;;;;;;;;;;56.63;7.22;97095.06;6223771;28;19969;-66
2022/08/09 08:45:14;;;;;;;;;;;;;;;57.37;6.85;97104.16;6223835;28;19925;-65
2022/08/09 08:48:18;;;;;;;;;;;;;;;57.70;6.32;97094.50;6223673;28;20005;-66
2022/08/09 08:51:26;;;;;;;;;;;;;;;57.46;6.81;97096.09;6223505;28;20435;-65
2022/08/09 08:54:30;;;;;;;;;;;;;;;57.47;6.45;97094.88;6223320;28;20318;-64
2022/08/09 08:57:33;;;;;;;;;;;;;;;56.67;6.41;97101.53;6223574;28;20453;-66
2022/08/09 09:00:35;;;;;;;;;;;;;;;56.25;6.80;97096.47;6223307;28;20063;-65
2022/08/09 09:03:37;;;;;;;;;;;;;;;56.76;6.36;97092.66;6223521;28;19929;-66
2022/08/09 09:06:42;;;;;;;;;;;;;;;57.19;5.51;97095.66;6223072;28;19925;-65
2022/08/09 09:09:46;;;;;;;;;;;;;;;57.37;6.30;97103.34;6223368;28;20319;-66
2022/08/09 09:12:50;;;;;;;;;;;;;;;57.42;6.06;97097.28;6222945;28;20265;-67
2022/08/09 09:15:52;;;;;;;;;;;;;;;56.57;6.20;97090.19;6223205;28;19925;-65
2022/08/09 09:19:02;;;;;;;;;;;;;;;55.94;6.79;97078.91;6223262;28;20016;-65
2022/08/09 09:22:04;;;;;;;;;;;;;;;56.14;6.65;97092.75;6222949;28;19925;-66
2022/08/09 09:25:05;;;;;;;;;;;;;;;55.71;6.71;97081.16;6222451;28;19936;-65
2022/08/09 09:28:07;;;;;;;;;;;;;;;55.26;6.83;97080.31;6222366;28;19925;-65
2022/08/09 09:31:12;;;;;;;;;;;;;;;55.37;6.48;97086.91;6222556;28;20434;-65
2022/08/09 09:34:16;;;;;;;;;;;;;;;56.04;6.69;97081.00;6222247;28;20018;-66
2022/08/09 09:37:27;;;;;;;;;;;;;;;55.93;6.67;97068.84;6222601;28;19926;-65
2022/08/09 09:40:44;;;;;;;;;;;;;;;55.96;6.66;97062.41;6222360;28;19926;-65
2022/08/09 09:43:47;;;;;;;;;;;;;;;55.64;6.23;97056.53;6222477;28;19925;-66
2022/08/09 09:46:54;;;;;;;;;;;;;;;55.30;6.75;97058.66;6222117;28;19925;-65
2022/08/09 09:49:58;;;;;;;;;;;;;;;54.81;6.29;97054.88;6222129;28;19963;-65
2022/08/09 09:52:59;;;;;;;;;;;;;;;53.78;6.92;97057.91;6221515;28;20433;-66
2022/08/09 09:56:03;;;;;;;;;;;;;;;53.06;7.71;97057.88;6222209;28;19926;-65
2022/08/09 09:59:07;;;;;;;;;;;;;;;52.63;7.82;97051.34;6221924;28;19921;-65
2022/08/09 10:02:10;;;;;;;;;;;;;;;52.55;7.58;97056.03;6222163;28;19930;-67
2022/08/09 10:05:11;;;;;;;;;;;;;;;52.40;7.52;97049.31;6221617;28;19925;-65
2022/08/09 10:08:12;;;;;;;;;;;;;;;52.96;7.31;97036.78;6221728;28;20007;-66
2022/08/09 10:11:24;;;;;;;;;;;;;;;53.19;7.24;97040.41;6222224;28;19929;-66
2022/08/09 10:14:28;;;;;;;;;;;;;;;52.34;7.68;97045.16;6221831;28;19957;-66
2022/08/09 10:17:31;;;;;;;;;;;;;;;51.65;7.97;97041.97;6220884;28;19925;-66
2022/08/09 10:20:37;;;;;;;;;;;;;;;50.05;8.52;97027.94;6221418;28;19925;-65
2022/08/09 10:23:42;;;;;;;;;;;;;;;49.52;8.98;97038.22;6221264;28;20410;-66
2022/08/09 10:26:44;;;;;;;;;;;;;;;48.80;9.53;97024.56;6221511;28;20391;-65
2022/08/09 10:29:48;;;;;;;;;;;;;;;48.59;9.37;97026.63;6220945;28;20415;-66
2022/08/09 10:32:54;;;;;;;;;;;;;;;48.06;9.44;97024.22;6221421;28;19937;-65
2022/08/09 10:35:55;;;;;;;;;;;;;;;47.93;9.41;97025.31;6221507;28;19932;-66
2022/08/09 10:39:01;;;;;;;;;;;;;;;47.89;9.35;97018.75;6221314;28;20442;-66
2022/08/09 10:42:04;;;;;;;;;;;;;;;47.91;9.32;97022.03;6221106;28;20302;-66
2022/08/09 10:45:10;;;;;;;;;;;;;;;47.67;9.49;97014.28;6221550;28;19926;-65
2022/08/09 10:48:35;;;;;;;;;;;;;;;47.40;9.69;97013.59;6220966;28;20303;-65
2022/08/09 10:51:45;;;;;;;;;;;;;;;46.88;9.98;97001.81;6221290;28;19926;-65
2022/08/09 10:54:52;;;;;;;;;;;;;;;46.14;10.60;97006.47;6221485;28;19925;-64
2022/08/09 10:57:55;;;;;;;;;;;;;;;45.23;11.45;96999.69;6220533;28;19925;-65
2022/08/09 11:00:59;;;;;;;;;;;;;;;45.15;11.28;97000.47;6221255;28;20315;-66
2022/08/09 11:04:13;;;;;;;;;;;;;;;45.02;11.15;97003.03;6220722;28;20387;-65
2022/08/09 11:07:17;;;;;;;;;;;;;;;45.20;11.14;96994.78;6221070;28;19925;-65
2022/08/09 11:10:36;;;;;;;;;;;;;;;45.82;10.73;96996.59;6220865;28;20316;-65
2022/08/09 11:13:43;;;;;;;;;;;;;;;45.82;10.72;97002.16;6220829;28;20387;-65
2022/08/09 11:16:46;;;;;;;;;;;;;;;45.27;11.23;96995.16;6221067;28;20032;-66
2022/08/09 11:19:52;;;;;;;;;;;;;;;44.76;11.41;97002.06;6220735;28;19933;-66
2022/08/09 11:22:56;;;;;;;;;;;;;;;44.58;11.33;97001.94;6220974;28;19926;-66
2022/08/09 11:25:57;;;;;;;;;;;;;;;44.26;11.47;96999.41;6220512;28;19932;-65
2022/08/09 11:29:01;;;;;;;;;;;;;;;43.84;11.66;96990.38;6220744;28;19925;-65
2022/08/09 11:32:04;;;;;;;;;;;;;;;43.27;12.34;96991.56;6220820;28;19925;-65
2022/08/09 11:35:08;;;;;;;;;;;;;;;43.09;12.37;96995.22;6220599;28;19937;-65
2022/08/09 11:38:14;;;;;;;;;;;;;;;42.62;12.51;96991.63;6220676;28;20012;-66
2022/08/09 11:41:28;;;;;;;;;;;;;;;41.93;12.65;96988.59;6220706;28;19925;-65
2022/08/09 11:44:44;;;;;;;;;;;;;;;41.40;13.00;96984.00;6220779;28;20403;-65
2022/08/09 11:47:49;;;;;;;;;;;;;;;40.85;13.03;96983.47;6219529;28;19968;-65
2022/08/09 11:50:56;;;;;;;;;;;;;;;40.46;13.42;96986.34;6220567;28;20395;-64
2022/08/09 11:54:10;;;;;;;;;;;;;;;40.22;13.60;96992.59;6220935;28;19930;-65
2022/08/09 11:57:43;;;;;;;;;;;;;;;40.50;13.30;96993.72;6220829;28;20343;-64
2022/08/09 12:00:51;;;;;;;;;;;;;;;40.57;13.31;96994.22;6203113;28;20072;-66
2022/08/09 12:03:57;;;;;;;;;;;;;;;40.46;13.33;96998.19;6224778;28;20331;-65
2022/08/09 12:07:00;;;;;;;;;;;;;;;40.00;13.59;96995.72;6224575;28;19925;-64
2022/08/09 12:10:02;;;;;;;;;;;;;;;39.69;13.67;96990.41;6224110;28;19961;-66
2022/08/09 12:13:04;;;;;;;;;;;;;;;39.25;13.88;96998.56;6224638;28;20398;-66
2022/08/09 12:16:09;;;;;;;;;;;;;;;39.17;13.81;96994.44;6224142;28;20292;-66
2022/08/09 12:19:14;;;;;;;;;;;;;;;38.75;14.36;96992.88;6224318;28;19925;-65
2022/08/09 12:22:19;;;;;;;;;;;;;;;38.57;14.68;96990.72;6223920;28;19929;-65
2022/08/09 12:25:23;;;;;;;;;;;;;;;38.61;14.33;96989.03;6224103;28;19968;-66
2022/08/09 12:28:25;;;;;;;;;;;;;;;38.58;14.36;96984.91;6222813;28;19948;-65
2022/08/09 12:31:28;;;;;;;;;;;;;;;38.52;14.62;96977.78;6224184;28;19932;-66
2022/08/09 12:34:36;;;;;;;;;;;;;;;38.49;14.54;96983.03;6222529;28;20388;-65
2022/08/09 12:37:38;;;;;;;;;;;;;;;38.29;14.41;96981.06;6223940;28;19925;-65
2022/08/09 12:40:49;;;;;;;;;;;;;;;37.61;14.80;96981.22;6223750;28;20383;-66
2022/08/09 12:43:52;;;;;;;;;;;;;;;37.31;14.84;96971.75;6223684;28;19926;-65
2022/08/09 12:46:53;;;;;;;;;;;;;;;37.30;15.16;96972.84;6223491;28;19932;-64
2022/08/09 12:53:27;;;;;;;;;;;;;;;37.06;15.07;96975.22;6223164;28;19926;-66
2022/08/09 12:56:44;;;;;;;;;;;;;;;37.08;15.56;96979.31;6223527;28;19936;-66
2022/08/09 12:59:47;;;;;;;;;;;;;;;36.64;15.52;96968.63;6223020;28;19925;-66
2022/08/09 13:02:59;;;;;;;;;;;;;;;36.45;15.71;96972.84;6222590;28;19932;-65
2022/08/09 13:06:05;;;;;;;;;;;;;;;36.37;15.61;96973.34;6223060;28;20025;-65
2022/08/09 13:09:08;;;;;;;;;;;;;;;36.04;16.30;96980.72;6221370;28;20315;-67
2022/08/09 13:12:12;;;;;;;;;;;;;;;35.52;16.38;96981.22;6222908;28;19925;-67
2022/08/09 13:15:15;;;;;;;;;;;;;;;35.00;16.76;96973.47;6223033;28;20303;-66
2022/08/09 13:18:22;;;;;;;;;;;;;;;34.51;16.96;96973.25;6223037;28;19930;-65
2022/08/09 13:21:27;;;;;;;;;;;;;;;33.96;17.54;96981.09;6222753;28;19968;-66
2022/08/09 13:24:31;;;;;;;;;;;;;;;33.51;17.87;96973.66;6222619;28;19932;-66
2022/08/09 13:27:37;;;;;;;;;;;;;;;33.23;18.03;96979.94;6221978;28;20040;-65
2022/08/09 13:30:44;;;;;;;;;;;;;;;32.98;18.04;96973.91;6222655;28;19925;-65
2022/08/09 13:33:54;;;;;;;;;;;;;;;32.64;18.65;96980.00;6222409;28;19925;-65
2022/08/09 13:36:58;;;;;;;;;;;;;;;32.43;18.41;96977.84;6222238;28;19926;-65
2022/08/09 13:40:02;;;;;;;;;;;;;;;32.35;18.61;96975.47;6222135;28;19929;-65
2022/08/09 13:43:04;;;;;;;;;;;;;;;32.15;18.80;96976.63;6222036;28;19964;-65
2022/08/09 13:46:07;;;;;;;;;;;;;;;32.16;18.83;96986.47;6222112;28;19926;-65
2022/08/09 13:49:11;;;;;;;;;;;;;;;32.27;18.68;96983.97;6222255;28;19932;-66
2022/08/09 13:52:12;;;;;;;;;;;;;;;32.18;18.83;96987.03;6222000;28;20403;-65
2022/08/09 13:55:15;;;;;;;;;;;;;;;32.05;19.21;96981.00;6222423;28;20028;-66
2022/08/09 13:58:16;;;;;;;;;;;;;;;31.92;19.54;96987.47;6220968;28;19925;-65
2022/08/09 14:01:19;;;;;;;;;;;;;;;31.76;19.58;96984.31;6220951;28;19932;-65
2022/08/09 14:04:21;;;;;;;;;;;;;;;31.68;19.70;96994.69;6222387;28;19932;-67
2022/08/09 14:07:26;;;;;;;;;;;;;;;31.49;19.85;96996.63;6222038;28;19925;-66
2022/08/09 14:10:32;;;;;;;;;;;;;;;31.33;20.12;96993.41;6221930;28;19929;-66
2022/08/09 14:13:33;;;;;;;;;;;;;;;31.26;19.87;97000.84;6221494;28;20012;-65
2022/08/09 14:16:34;;;;;;;;;;;;;;;31.13;20.32;97003.72;6221505;28;20306;-65
2022/08/09 14:19:36;;;;;;;;;;;;;;;31.00;20.13;96996.56;6221651;28;19925;-67
2022/08/09 14:22:37;;;;;;;;;;;;;;;30.81;20.17;97003.84;6220774;28;19926;-67
2022/08/09 14:25:50;;;;;;;;;;;;;;;30.71;20.65;97000.78;6221412;28;20318;-65
2022/08/09 14:28:57;;;;;;;;;;;;;;;30.54;20.90;96996.97;6221377;28;19929;-66
2022/08/09 14:32:00;;;;;;;;;;;;;;;30.40;20.98;97004.41;6221438;28;19925;-66
2022/08/09 14:35:04;;;;;;;;;;;;;;;30.32;21.01;96999.25;6221080;28;19925;-65
2022/08/09 14:38:08;;;;;;;;;;;;;;;30.14;21.60;97003.53;6221690;28;20319;-65
2022/08/09 14:41:09;;;;;;;;;;;;;;;29.95;21.59;97005.38;6221564;28;19936;-66
2022/08/09 14:44:16;;;;;;;;;;;;;;;29.80;21.97;97002.13;6221131;28;20423;-67
2022/08/09 14:47:17;;;;;;;;;;;;;;;29.52;22.33;97006.00;6220846;28;20303;-66
2022/08/09 14:50:18;;;;;;;;;;;;;;;29.36;22.54;97003.78;6220500;28;20002;-66
2022/08/09 14:53:21;;;;;;;;;;;;;;;29.15;22.57;97001.38;6221024;28;19926;-66
2022/08/09 14:56:27;;;;;;;;;;;;;;;28.99;22.46;97008.06;6220849;28;20019;-66
2022/08/09 14:59:33;;;;;;;;;;;;;;;28.87;22.84;97007.88;6220417;28;20410;-66
2022/08/09 15:02:35;;;;;;;;;;;;;;;28.67;22.80;97007.91;6221106;28;19947;-66
2022/08/09 15:05:37;;;;;;;;;;;;;;;28.51;23.09;97008.38;6219817;28;20292;-66
2022/08/09 15:08:41;;;;;;;;;;;;;;;28.36;23.15;97005.84;6221089;28;20135;-66
2022/08/09 15:11:46;;;;;;;;;;;;;;;28.18;23.27;97010.00;6219543;28;19925;-65
2022/08/09 15:14:51;;;;;;;;;;;;;;;27.99;23.36;97010.81;6220716;28;19925;-67
2022/08/09 15:17:52;;;;;;;;;;;;;;;27.81;23.54;97013.28;6220679;28;19926;-66
2022/08/09 15:20:57;;;;;;;;;;;;;;;27.59;23.99;97010.69;6220838;28;19926;-67
2022/08/09 15:23:58;;;;;;;;;;;;;;;27.39;24.39;97016.03;6220467;28;19932;-66
2022/08/09 15:27:01;;;;;;;;;;;;;;;27.20;24.39;97017.63;6220775;28;19933;-65
2022/08/09 15:30:06;;;;;;;;;;;;;;;27.01;24.44;97026.44;6220807;28;19921;-66
2022/08/09 15:33:07;;;;;;;;;;;;;;;26.83;24.56;97021.56;6221576;28;19925;-66
2022/08/09 15:36:13;;;;;;;;;;;;;;;26.63;24.55;97024.13;6225529;28;19926;-65
2022/08/09 15:39:15;;;;;;;;;;;;;;;26.47;25.15;97018.97;6224846;28;19921;-66
2022/08/09 15:42:17;;;;;;;;;;;;;;;26.36;25.23;97023.06;6224991;28;19929;-65
2022/08/09 15:45:18;;;;;;;;;;;;;;;26.21;25.58;97020.44;6224494;28;20023;-65
2022/08/09 15:48:20;;;;;;;;;;;;;;;26.10;25.70;97026.34;6224974;28;19921;-67
2022/08/09 15:51:23;;;;;;;;;;;;;;;25.98;25.98;97036.84;6225046;28;20307;-66
2022/08/09 15:54:24;;;;;;;;;;;;;;;25.85;25.94;97045.63;6225107;28;19921;-68
2022/08/09 15:57:26;;;;;;;;;;;;;;;25.76;26.30;97041.38;6224645;28;19933;-67
2022/08/09 16:00:27;;;;;;;;;;;;;;;25.68;26.70;97044.19;6224725;28;19921;-66
2022/08/09 16:03:28;;;;;;;;;;;;;;;25.59;26.99;97045.28;6224373;28;19980;-71